createdAt,value
2017-09-24T00:00:04.196Z,11.60
2017-09-24T00:02:33.223Z,11.60
2017-09-24T00:05:01.353Z,11.60
2017-09-24T00:07:30.346Z,11.60
2017-09-24T00:09:58.537Z,11.60
2017-09-24T00:12:26.681Z,11.60
2017-09-24T00:14:55.637Z,11.50
2017-09-24T00:17:23.778Z,11.60
2017-09-24T00:19:51.946Z,11.60
2017-09-24T00:22:20.104Z,11.60
2017-09-24T00:24:48.379Z,11.60
2017-09-24T00:27:16.517Z,11.60
2017-09-24T00:29:45.428Z,11.60
2017-09-24T00:32:13.627Z,11.50
2017-09-24T00:34:41.788Z,11.60
2017-09-24T00:37:09.966Z,11.60
2017-09-24T00:39:38.101Z,11.50
2017-09-24T00:42:06.246Z,11.60
2017-09-24T00:44:34.417Z,11.60
2017-09-24T00:47:02.571Z,11.60
2017-09-24T00:49:30.833Z,11.60
2017-09-24T00:51:59.000Z,11.60
2017-09-24T00:54:27.199Z,11.60
2017-09-24T00:56:55.362Z,11.60
2017-09-24T00:59:23.519Z,11.70
2017-09-24T01:01:51.698Z,11.70
2017-09-24T01:04:19.852Z,11.70
2017-09-24T01:06:48.001Z,11.70
2017-09-24T01:09:16.169Z,11.70
2017-09-24T01:11:44.320Z,11.70
2017-09-24T01:14:13.270Z,11.70
2017-09-24T01:16:41.439Z,11.60
2017-09-24T01:19:09.623Z,11.60
2017-09-24T01:21:37.770Z,11.60
2017-09-24T01:24:05.931Z,11.50
2017-09-24T01:26:34.155Z,11.50
2017-09-24T01:29:02.317Z,11.50
2017-09-24T01:31:30.606Z,11.50
2017-09-24T01:33:58.757Z,11.40
2017-09-24T01:36:26.921Z,11.40
2017-09-24T01:38:55.127Z,11.40
2017-09-24T01:41:23.322Z,11.30
2017-09-24T01:43:52.239Z,11.30
2017-09-24T01:46:20.627Z,11.30
2017-09-24T01:48:48.791Z,11.20
2017-09-24T01:51:16.965Z,11.20
2017-09-24T01:53:45.236Z,11.20
2017-09-24T01:56:13.439Z,11.20
2017-09-24T01:58:41.623Z,11.20
2017-09-24T02:01:09.866Z,11.20
2017-09-24T02:03:38.028Z,11.20
2017-09-24T02:06:06.216Z,11.20
2017-09-24T02:08:34.356Z,11.20
2017-09-24T02:11:02.514Z,11.20
2017-09-24T02:13:30.690Z,11.20
2017-09-24T02:15:59.608Z,11.10
2017-09-24T02:18:27.791Z,11.10
2017-09-24T02:20:55.929Z,11.10
2017-09-24T02:23:24.073Z,11.10
2017-09-24T02:25:53.122Z,11.10
2017-09-24T02:28:22.393Z,11.00
2017-09-24T02:30:50.542Z,11.10
2017-09-24T02:33:19.477Z,11.10
2017-09-24T02:35:47.614Z,11.10
2017-09-24T02:38:15.899Z,11.10
2017-09-24T02:40:44.049Z,11.10
2017-09-24T02:43:12.964Z,11.20
2017-09-24T02:45:41.183Z,11.10
2017-09-24T02:48:09.325Z,11.20
2017-09-24T02:50:37.542Z,11.20
2017-09-24T02:53:05.690Z,11.20
2017-09-24T02:55:34.045Z,11.20
2017-09-24T02:58:02.189Z,11.20
2017-09-24T03:00:30.339Z,11.30
2017-09-24T03:02:59.282Z,11.30
2017-09-24T03:05:27.427Z,11.30
2017-09-24T03:07:55.698Z,11.30
2017-09-24T03:10:23.910Z,11.30
2017-09-24T03:12:52.041Z,11.30
2017-09-24T03:15:21.241Z,11.30
2017-09-24T03:17:49.391Z,11.30
2017-09-24T03:20:18.294Z,11.30
2017-09-24T03:22:47.240Z,11.30
2017-09-24T03:25:15.394Z,11.30
2017-09-24T03:27:43.538Z,11.30
2017-09-24T03:30:11.789Z,11.30
2017-09-24T03:32:40.715Z,11.30
2017-09-24T03:35:08.860Z,11.30
2017-09-24T03:37:37.787Z,11.30
2017-09-24T03:40:05.936Z,11.30
2017-09-24T03:42:34.093Z,11.30
2017-09-24T03:45:03.002Z,11.20
2017-09-24T03:47:31.166Z,11.20
2017-09-24T03:49:59.322Z,11.20
2017-09-24T03:52:28.270Z,11.10
2017-09-24T03:54:56.499Z,11.10
2017-09-24T03:57:24.646Z,11.10
2017-09-24T03:59:52.807Z,11.10
2017-09-24T04:02:20.946Z,11.10
2017-09-24T04:04:49.116Z,11.00
2017-09-24T04:07:17.262Z,11.00
2017-09-24T04:09:45.417Z,11.00
2017-09-24T04:12:14.355Z,10.90
2017-09-24T04:14:42.497Z,10.90
2017-09-24T04:17:10.666Z,10.80
2017-09-24T04:19:38.812Z,10.80
2017-09-24T04:22:07.764Z,10.80
2017-09-24T04:24:35.914Z,10.70
2017-09-24T04:27:04.067Z,10.70
2017-09-24T04:29:32.428Z,10.70
2017-09-24T04:32:01.335Z,10.70
2017-09-24T04:34:29.483Z,10.60
2017-09-24T04:36:58.520Z,10.60
2017-09-24T04:39:26.676Z,10.60
2017-09-24T04:41:54.845Z,10.60
2017-09-24T04:44:22.999Z,10.60
2017-09-24T04:46:52.144Z,10.60
2017-09-24T04:49:20.299Z,10.60
2017-09-24T04:51:48.433Z,10.60
2017-09-24T04:54:17.381Z,10.50
2017-09-24T04:56:45.535Z,10.50
2017-09-24T04:59:13.679Z,10.50
2017-09-24T05:01:42.605Z,10.40
2017-09-24T05:04:10.743Z,10.40
2017-09-24T05:06:38.915Z,10.50
2017-09-24T05:09:07.054Z,10.40
2017-09-24T05:11:35.316Z,10.40
2017-09-24T05:14:03.467Z,10.40
2017-09-24T05:16:31.615Z,10.40
2017-09-24T05:18:59.785Z,10.40
2017-09-24T05:21:27.920Z,10.30
2017-09-24T05:23:56.966Z,10.30
2017-09-24T05:26:25.119Z,10.30
2017-09-24T05:28:53.270Z,10.30
2017-09-24T05:31:22.310Z,10.30
2017-09-24T05:33:50.450Z,10.30
2017-09-24T05:36:18.612Z,10.30
2017-09-24T05:38:47.545Z,10.30
2017-09-24T05:41:15.681Z,10.30
2017-09-24T05:43:43.960Z,10.30
2017-09-24T05:46:12.115Z,10.30
2017-09-24T05:48:41.675Z,10.30
2017-09-24T05:51:09.859Z,10.30
2017-09-24T05:53:37.998Z,10.30
2017-09-24T05:56:06.137Z,10.30
2017-09-24T05:58:35.081Z,10.30
2017-09-24T06:01:03.229Z,10.30
2017-09-24T06:03:31.401Z,10.40
2017-09-24T06:05:59.549Z,10.40
2017-09-24T06:08:27.697Z,10.50
2017-09-24T06:10:55.863Z,10.60
2017-09-24T06:13:23.997Z,10.60
2017-09-24T06:15:52.138Z,10.70
2017-09-24T06:18:20.367Z,10.80
2017-09-24T06:20:48.519Z,10.80
2017-09-24T06:23:16.790Z,10.90
2017-09-24T06:25:44.922Z,11.00
2017-09-24T06:28:13.831Z,11.20
2017-09-24T06:30:42.152Z,11.20
2017-09-24T06:33:11.097Z,11.40
2017-09-24T06:35:39.241Z,11.40
2017-09-24T06:38:08.284Z,11.70
2017-09-24T06:40:36.427Z,11.70
2017-09-24T06:43:04.576Z,12.00
2017-09-24T06:45:33.704Z,12.40
2017-09-24T06:48:01.845Z,12.40
2017-09-24T06:50:30.754Z,12.80
2017-09-24T06:52:59.042Z,12.80
2017-09-24T06:55:27.203Z,13.10
2017-09-24T06:57:55.352Z,13.40
2017-09-24T07:00:24.310Z,13.80
2017-09-24T07:02:52.458Z,13.80
2017-09-24T07:05:20.607Z,13.90
2017-09-24T07:07:48.902Z,14.10
2017-09-24T07:10:17.058Z,14.20
2017-09-24T07:12:45.201Z,14.30
2017-09-24T07:15:14.152Z,14.70
2017-09-24T07:17:43.053Z,14.90
2017-09-24T07:20:11.257Z,14.90
2017-09-24T07:22:40.162Z,15.30
2017-09-24T07:25:08.320Z,15.30
2017-09-24T07:27:37.413Z,15.60
2017-09-24T07:30:05.568Z,15.70
2017-09-24T07:32:33.747Z,15.90
2017-09-24T07:35:02.654Z,16.30
2017-09-24T07:37:30.807Z,16.30
2017-09-24T07:39:59.965Z,16.70
2017-09-24T07:42:28.150Z,16.70
2017-09-24T07:44:56.506Z,16.90
2017-09-24T07:47:24.675Z,17.10
2017-09-24T07:49:52.821Z,17.30
2017-09-24T07:52:21.226Z,17.40
2017-09-24T07:54:49.391Z,17.60
2017-09-24T07:57:17.546Z,17.70
2017-09-24T07:59:45.784Z,17.90
2017-09-24T08:02:14.715Z,18.20
2017-09-24T08:04:42.903Z,18.10
2017-09-24T08:07:11.047Z,18.30
2017-09-24T08:09:39.198Z,18.50
2017-09-24T08:12:08.150Z,18.60
2017-09-24T08:14:37.085Z,18.70
2017-09-24T08:17:06.006Z,18.80
2017-09-24T08:19:34.481Z,18.80
2017-09-24T08:22:02.622Z,18.90
2017-09-24T08:24:30.919Z,18.90
2017-09-24T08:26:59.076Z,19.00
2017-09-24T08:29:28.009Z,19.20
2017-09-24T08:31:56.190Z,19.10
2017-09-24T08:34:24.347Z,19.20
2017-09-24T08:36:52.533Z,19.20
2017-09-24T08:39:20.703Z,19.30
2017-09-24T08:41:48.847Z,19.40
2017-09-24T08:44:17.024Z,19.50
2017-09-24T08:46:45.194Z,19.50
2017-09-24T08:49:13.368Z,19.50
2017-09-24T08:51:41.512Z,19.70
2017-09-24T08:54:09.699Z,19.70
2017-09-24T08:56:37.836Z,19.80
2017-09-24T08:59:06.124Z,19.90
2017-09-24T09:01:35.021Z,20.00
2017-09-24T09:04:03.921Z,20.00
2017-09-24T09:06:32.109Z,20.00
2017-09-24T09:09:00.249Z,20.00
2017-09-24T09:11:29.171Z,20.00
2017-09-24T09:13:57.342Z,20.00
2017-09-24T09:16:25.486Z,20.10
2017-09-24T09:18:54.423Z,20.30
2017-09-24T09:24:25.868Z,20.60
2017-09-24T09:26:54.023Z,20.70
2017-09-24T09:29:22.169Z,20.90
2017-09-24T09:31:51.109Z,21.30
2017-09-24T09:34:40.030Z,21.20
2017-09-24T09:37:08.999Z,21.70
2017-09-24T09:39:37.143Z,21.70
2017-09-24T09:42:05.292Z,21.90
2017-09-24T09:44:51.707Z,22.10
2017-09-24T09:47:27.479Z,22.10
2017-09-24T09:49:55.632Z,22.20
2017-09-24T09:52:23.787Z,22.30
2017-09-24T09:54:51.983Z,22.30
2017-09-24T09:57:20.152Z,22.20
2017-09-24T09:59:48.330Z,22.00
2017-09-24T10:02:16.496Z,21.70
2017-09-24T10:04:44.682Z,21.20
2017-09-24T10:10:38.422Z,20.10
2017-09-24T10:13:06.705Z,20.10
2017-09-24T10:15:34.865Z,19.80
2017-09-24T10:18:03.007Z,19.50
2017-09-24T10:20:31.282Z,19.30
2017-09-24T10:23:00.223Z,19.00
2017-09-24T10:25:28.380Z,19.00
2017-09-24T10:27:56.774Z,19.00
2017-09-24T10:30:42.915Z,19.00
2017-09-24T10:33:11.870Z,19.10
2017-09-24T10:35:40.087Z,19.00
2017-09-24T10:38:09.006Z,19.50
2017-09-24T10:40:37.184Z,19.50
2017-09-24T10:43:05.980Z,19.70
2017-09-24T10:45:34.126Z,20.00
2017-09-24T10:48:02.287Z,20.10
2017-09-24T10:50:31.451Z,20.30
2017-09-24T10:52:59.603Z,20.30
2017-09-24T10:55:27.767Z,20.30
2017-09-24T10:57:55.943Z,20.20
2017-09-24T11:00:24.087Z,20.00
2017-09-24T11:02:52.247Z,19.80
2017-09-24T11:05:21.177Z,19.50
2017-09-24T11:07:49.305Z,19.50
2017-09-24T11:10:17.454Z,19.40
2017-09-24T11:12:46.515Z,19.20
2017-09-24T11:15:14.650Z,19.20
2017-09-24T11:17:42.792Z,19.20
2017-09-24T11:20:10.979Z,19.10
2017-09-24T11:22:39.126Z,19.10
2017-09-24T11:25:07.306Z,19.10
2017-09-24T11:27:35.500Z,19.20
2017-09-24T11:30:03.664Z,19.20
2017-09-24T11:32:32.598Z,19.00
2017-09-24T11:35:00.899Z,19.00
2017-09-24T11:37:29.031Z,19.00
2017-09-24T11:39:57.175Z,18.90
2017-09-24T11:42:26.128Z,18.90
2017-09-24T11:44:54.258Z,18.90
2017-09-24T11:47:22.394Z,18.90
2017-09-24T11:49:50.663Z,18.80
2017-09-24T11:52:18.819Z,18.70
2017-09-24T11:54:46.979Z,18.70
2017-09-24T11:57:15.352Z,18.60
2017-09-24T11:59:43.499Z,18.60
2017-09-24T12:02:11.652Z,18.50
2017-09-24T12:04:40.598Z,18.30
2017-09-24T12:07:08.756Z,18.30
2017-09-24T12:09:36.913Z,18.30
2017-09-24T12:12:05.083Z,18.30
2017-09-24T12:14:33.217Z,18.30
2017-09-24T12:17:02.160Z,18.40
2017-09-24T12:19:30.456Z,18.40
2017-09-24T12:21:58.607Z,18.50
2017-09-24T12:24:26.758Z,18.50
2017-09-24T12:26:54.940Z,18.60
2017-09-24T12:29:23.100Z,18.60
2017-09-24T12:31:51.296Z,18.70
2017-09-24T12:34:19.462Z,18.70
2017-09-24T12:36:47.598Z,18.80
2017-09-24T12:39:16.526Z,18.60
2017-09-24T12:41:44.675Z,18.60
2017-09-24T12:44:12.972Z,18.50
2017-09-24T12:46:41.132Z,18.40
2017-09-24T12:49:09.277Z,18.30
2017-09-24T12:51:38.207Z,18.20
2017-09-24T12:54:06.343Z,18.10
2017-09-24T12:56:34.503Z,18.10
2017-09-24T12:59:03.418Z,18.00
2017-09-24T13:01:31.603Z,17.90
2017-09-24T13:03:59.758Z,17.90
2017-09-24T13:06:27.937Z,17.90
2017-09-24T13:08:56.088Z,17.90
2017-09-24T13:11:24.245Z,17.90
2017-09-24T13:13:53.262Z,17.90
2017-09-24T13:16:21.410Z,17.90
2017-09-24T13:18:50.312Z,18.00
2017-09-24T13:21:19.260Z,18.10
2017-09-24T13:23:47.405Z,18.10
2017-09-24T13:26:15.577Z,18.20
2017-09-24T13:28:43.879Z,18.30
2017-09-24T13:31:12.011Z,18.30
2017-09-24T13:33:40.138Z,18.40
2017-09-24T13:36:08.315Z,18.60
2017-09-24T13:38:36.468Z,18.70
2017-09-24T13:41:04.609Z,18.60
2017-09-24T13:43:32.770Z,18.70
2017-09-24T13:46:00.914Z,18.70
2017-09-24T13:48:29.830Z,18.50
2017-09-24T13:50:58.016Z,18.50
2017-09-24T13:53:26.172Z,18.50
2017-09-24T13:55:54.457Z,18.40
2017-09-24T13:58:22.582Z,18.40
2017-09-24T14:00:51.486Z,18.30
2017-09-24T14:03:19.663Z,18.20
2017-09-24T14:05:47.809Z,18.20
2017-09-24T14:08:15.966Z,18.10
2017-09-24T14:10:44.130Z,18.10
2017-09-24T14:13:12.277Z,18.10
2017-09-24T14:15:40.434Z,18.00
2017-09-24T14:18:08.579Z,18.00
2017-09-24T14:20:37.625Z,17.90
2017-09-24T14:23:05.770Z,17.90
2017-09-24T14:25:33.920Z,17.90
2017-09-24T14:28:03.121Z,17.80
2017-09-24T14:30:32.021Z,17.70
2017-09-24T14:33:00.175Z,17.70
2017-09-24T14:35:29.111Z,17.70
2017-09-24T14:37:57.253Z,17.70
2017-09-24T14:40:25.413Z,17.60
2017-09-24T14:42:54.348Z,17.60
2017-09-24T14:45:22.506Z,17.50
2017-09-24T14:47:50.697Z,17.50
2017-09-24T14:50:18.830Z,17.50
2017-09-24T14:52:46.987Z,17.50
2017-09-24T14:55:15.151Z,17.40
2017-09-24T14:57:44.188Z,17.40
2017-09-24T15:00:12.337Z,17.30
2017-09-24T15:02:40.479Z,17.40
2017-09-24T15:05:09.518Z,17.30
2017-09-24T15:07:37.669Z,17.30
2017-09-24T15:10:05.827Z,17.20
2017-09-24T15:12:35.677Z,17.20
2017-09-24T15:15:03.828Z,17.20
2017-09-24T15:17:32.103Z,17.10
2017-09-24T15:20:00.270Z,17.10
2017-09-24T15:22:28.427Z,17.10
2017-09-24T15:24:57.451Z,17.00
2017-09-24T15:27:25.730Z,17.00
2017-09-24T15:29:53.923Z,17.00
2017-09-24T15:32:22.068Z,16.90
2017-09-24T15:34:50.256Z,16.90
2017-09-24T15:37:18.399Z,16.90
2017-09-24T15:39:46.559Z,16.80
2017-09-24T15:42:14.764Z,16.70
2017-09-24T15:44:42.937Z,16.70
2017-09-24T15:47:11.221Z,16.60
2017-09-24T15:49:39.384Z,16.50
2017-09-24T15:52:07.548Z,16.40
2017-09-24T15:54:35.744Z,16.30
2017-09-24T15:57:03.897Z,16.30
2017-09-24T15:59:32.038Z,16.20
2017-09-24T16:02:01.089Z,16.00
2017-09-24T16:04:29.233Z,16.00
2017-09-24T16:06:57.422Z,15.90
2017-09-24T16:09:25.626Z,15.80
2017-09-24T16:11:53.796Z,15.60
2017-09-24T16:14:21.974Z,15.50
2017-09-24T16:16:51.275Z,15.30
2017-09-24T16:19:20.347Z,15.20
2017-09-24T16:21:48.493Z,15.20
2017-09-24T16:24:16.639Z,15.10
2017-09-24T16:26:44.971Z,15.00
2017-09-24T16:29:13.136Z,14.90
2017-09-24T16:31:41.294Z,14.90
2017-09-24T16:34:09.797Z,14.80
2017-09-24T16:36:38.862Z,14.70
2017-09-24T16:39:07.275Z,14.70
2017-09-24T16:41:36.198Z,14.60
2017-09-24T16:44:04.347Z,14.60
2017-09-24T16:46:33.427Z,14.60
2017-09-24T16:49:01.859Z,14.50
2017-09-24T16:51:30.016Z,14.50
2017-09-24T16:53:58.330Z,14.50
2017-09-24T16:56:26.525Z,14.40
2017-09-24T16:58:54.724Z,14.40
2017-09-24T17:01:23.658Z,14.40
2017-09-24T17:03:51.846Z,14.40
2017-09-24T17:06:20.225Z,14.40
2017-09-24T17:08:48.387Z,14.40
2017-09-24T17:11:16.753Z,14.40
2017-09-24T17:13:44.987Z,14.30
2017-09-24T17:16:13.130Z,14.30
2017-09-24T17:18:41.363Z,14.30
2017-09-24T17:21:09.745Z,14.30
2017-09-24T17:23:38.234Z,14.30
2017-09-24T17:26:06.544Z,14.30
2017-09-24T17:28:35.570Z,14.30
2017-09-24T17:31:04.292Z,14.30
2017-09-24T17:33:33.626Z,14.30
2017-09-24T17:36:02.561Z,14.30
2017-09-24T17:38:32.049Z,14.30
2017-09-24T17:41:01.211Z,14.30
2017-09-24T17:43:29.931Z,14.30
2017-09-24T17:45:58.895Z,14.40
2017-09-24T17:48:28.333Z,14.30
2017-09-24T17:50:57.997Z,14.20
2017-09-24T17:53:27.266Z,14.30
2017-09-24T17:55:56.140Z,14.30
2017-09-24T17:58:26.451Z,14.20
2017-09-24T18:00:55.892Z,14.20
2017-09-24T18:03:25.107Z,14.30
2017-09-24T18:05:54.496Z,14.30
2017-09-24T18:08:23.951Z,14.20
2017-09-24T18:10:53.281Z,14.20
2017-09-24T18:13:22.564Z,14.20
2017-09-24T18:15:52.162Z,14.20
2017-09-24T18:18:21.515Z,14.20
2017-09-24T18:20:50.964Z,14.20
2017-09-24T18:23:21.377Z,14.30
2017-09-24T18:25:50.735Z,14.30
2017-09-24T18:28:20.584Z,14.30
2017-09-24T18:30:51.542Z,14.30
2017-09-24T18:33:21.247Z,14.30
2017-09-24T18:35:50.760Z,14.30
2017-09-24T18:38:20.667Z,14.30
2017-09-24T18:40:50.269Z,14.20
2017-09-24T18:43:19.895Z,14.20
2017-09-24T18:45:49.182Z,14.20
2017-09-24T18:48:18.596Z,14.10
2017-09-24T18:50:48.064Z,14.10
2017-09-24T18:53:17.422Z,14.00
2017-09-24T18:55:47.742Z,14.00
2017-09-24T18:58:17.295Z,13.90
2017-09-24T19:00:47.504Z,13.90
2017-09-24T19:03:17.248Z,13.80
2017-09-24T19:05:46.789Z,13.70
2017-09-24T19:08:16.905Z,13.50
2017-09-24T19:10:47.158Z,13.50
2017-09-24T19:13:16.528Z,13.50
2017-09-24T19:15:45.897Z,13.40
2017-09-24T19:18:15.342Z,13.40
2017-09-24T19:20:45.414Z,13.30
2017-09-24T19:23:14.974Z,13.30
2017-09-24T19:25:44.276Z,13.20
2017-09-24T19:28:14.479Z,13.20
2017-09-24T19:30:44.622Z,13.10
2017-09-24T19:33:14.085Z,13.10
2017-09-24T19:35:44.070Z,13.10
2017-09-24T19:38:13.653Z,13.10
2017-09-24T19:40:43.011Z,13.00
2017-09-24T19:43:12.337Z,13.00
2017-09-24T19:45:42.051Z,12.90
2017-09-24T19:48:11.398Z,12.90
2017-09-24T19:50:41.882Z,12.80
2017-09-24T19:53:11.482Z,12.80
2017-09-24T19:55:42.693Z,12.80
2017-09-24T19:58:12.023Z,12.80
2017-09-24T20:00:41.479Z,12.80
2017-09-24T20:03:10.930Z,12.70
2017-09-24T20:05:41.020Z,12.70
2017-09-24T20:08:11.371Z,12.70
2017-09-24T20:10:40.875Z,12.60
2017-09-24T20:13:10.131Z,12.70
2017-09-24T20:15:39.611Z,12.70
2017-09-24T20:18:09.700Z,12.60
2017-09-24T20:20:39.204Z,12.60
2017-09-24T20:23:08.608Z,12.60
2017-09-24T20:25:38.023Z,12.60
2017-09-24T20:28:07.411Z,12.60
2017-09-24T20:30:37.476Z,12.50
2017-09-24T20:33:07.652Z,12.50
2017-09-24T20:35:36.828Z,12.50
2017-09-24T20:38:06.644Z,12.50
2017-09-24T20:40:35.525Z,12.50
2017-09-24T20:43:04.469Z,12.50
2017-09-24T20:45:33.201Z,12.50
2017-09-24T20:48:01.425Z,12.50
2017-09-24T20:50:30.439Z,12.50
2017-09-24T20:52:58.604Z,12.40
2017-09-24T20:55:27.518Z,12.40
2017-09-24T20:57:55.749Z,12.40
2017-09-24T21:00:23.911Z,12.40
2017-09-24T21:02:52.083Z,12.40
2017-09-24T21:05:20.268Z,12.40
2017-09-24T21:07:49.184Z,12.30
2017-09-24T21:10:17.326Z,12.30
2017-09-24T21:12:45.502Z,12.30
2017-09-24T21:15:13.655Z,12.30
2017-09-24T21:17:41.827Z,12.30
2017-09-24T21:20:09.979Z,12.20
2017-09-24T21:22:38.126Z,12.20
2017-09-24T21:25:06.317Z,12.20
2017-09-24T21:27:34.481Z,12.20
2017-09-24T21:30:02.633Z,12.20
2017-09-24T21:32:30.825Z,12.20
2017-09-24T21:34:58.965Z,12.10
2017-09-24T21:37:27.886Z,12.10
2017-09-24T21:39:56.082Z,12.10
2017-09-24T21:42:24.230Z,12.10
2017-09-24T21:44:52.373Z,12.10
2017-09-24T21:47:21.301Z,12.00
2017-09-24T21:49:49.451Z,12.00
2017-09-24T21:52:17.752Z,12.00
2017-09-24T21:54:45.918Z,12.00
2017-09-24T21:57:14.063Z,11.90
2017-09-24T21:59:42.271Z,11.90
2017-09-24T22:02:10.439Z,11.90
2017-09-24T22:04:38.581Z,11.90
2017-09-24T22:07:06.875Z,11.80
2017-09-24T22:09:35.023Z,11.80
2017-09-24T22:12:03.175Z,11.80
2017-09-24T22:14:32.098Z,11.70
2017-09-24T22:17:00.245Z,11.70
2017-09-24T22:19:29.181Z,11.70
2017-09-24T22:21:57.318Z,11.70
2017-09-24T22:24:25.595Z,11.70
2017-09-24T22:26:53.732Z,11.70
2017-09-24T22:29:21.864Z,11.60
2017-09-24T22:31:50.025Z,11.60
2017-09-24T22:34:18.158Z,11.50
2017-09-24T22:36:47.104Z,11.50
2017-09-24T22:39:15.888Z,11.50
2017-09-24T22:41:44.044Z,11.50
2017-09-24T22:44:12.190Z,11.40
2017-09-24T22:46:40.477Z,11.40
2017-09-24T22:49:08.630Z,11.40
2017-09-24T22:51:37.543Z,11.30
2017-09-24T22:54:05.714Z,11.30
2017-09-24T22:56:33.873Z,11.30
2017-09-24T22:59:02.061Z,11.20
2017-09-24T23:01:30.207Z,11.20
2017-09-24T23:03:59.126Z,11.20
2017-09-24T23:06:27.299Z,11.10
2017-09-24T23:08:55.456Z,11.20
2017-09-24T23:11:23.636Z,11.20
2017-09-24T23:13:51.778Z,11.10
2017-09-24T23:16:19.958Z,11.00
2017-09-24T23:18:48.091Z,11.10
2017-09-24T23:21:16.229Z,11.00
2017-09-24T23:23:44.391Z,11.00
2017-09-24T23:26:12.547Z,11.00
2017-09-24T23:28:41.590Z,10.90
2017-09-24T23:31:09.746Z,10.90
2017-09-24T23:33:38.489Z,10.90
2017-09-24T23:36:07.425Z,10.80
2017-09-24T23:38:35.579Z,10.80
2017-09-24T23:41:03.751Z,10.80
2017-09-24T23:43:31.911Z,10.80
2017-09-24T23:46:00.073Z,10.70
2017-09-24T23:48:28.276Z,10.70
2017-09-24T23:50:56.408Z,10.70
2017-09-24T23:53:25.533Z,10.70
2017-09-24T23:55:53.963Z,10.70
2017-09-24T23:58:22.126Z,10.60
